sensor_id;sensor_type;location;lat;lon;timestamp;P1;durP1;ratioP1;P2;durP2;ratioP2
11222;SDS011;5668;52.012;8.724;2024-03-17T00:01:42;3.77;;;2.07;;
11222;SDS011;5668;52.012;8.724;2024-03-17T00:04:29;2.50;;;2.30;;
11222;SDS011;5668;52.012;8.724;2024-03-17T00:07:17;3.90;;;2.40;;
11222;SDS011;5668;52.012;8.724;2024-03-17T00:09:49;3.53;;;2.40;;
11222;SDS011;5668;52.012;8.724;2024-03-17T00:12:35;3.73;;;2.40;;
11222;SDS011;5668;52.012;8.724;2024-03-17T00:15:28;3.60;;;2.20;;
11222;SDS011;5668;52.012;8.724;2024-03-17T00:17:55;6.07;;;2.63;;
11222;SDS011;5668;52.012;8.724;2024-03-17T00:20:23;3.33;;;2.20;;
11222;SDS011;5668;52.012;8.724;2024-03-17T00:22:50;6.07;;;2.40;;
11222;SDS011;5668;52.012;8.724;2024-03-17T00:25:17;4.77;;;2.47;;
11222;SDS011;5668;52.012;8.724;2024-03-17T00:27:43;4.07;;;2.17;;
11222;SDS011;5668;52.012;8.724;2024-03-17T00:30:13;3.43;;;2.47;;
11222;SDS011;5668;52.012;8.724;2024-03-17T00:32:40;3.07;;;2.23;;
11222;SDS011;5668;52.012;8.724;2024-03-17T00:35:08;5.30;;;2.67;;
11222;SDS011;5668;52.012;8.724;2024-03-17T00:37:40;4.03;;;2.27;;
11222;SDS011;5668;52.012;8.724;2024-03-17T00:40:08;4.43;;;2.30;;
11222;SDS011;5668;52.012;8.724;2024-03-17T00:42:36;3.70;;;2.33;;
11222;SDS011;5668;52.012;8.724;2024-03-17T00:45:04;6.33;;;2.40;;
11222;SDS011;5668;52.012;8.724;2024-03-17T00:47:31;3.83;;;2.23;;
11222;SDS011;5668;52.012;8.724;2024-03-17T00:49:59;5.53;;;3.03;;
11222;SDS011;5668;52.012;8.724;2024-03-17T00:52:25;2.93;;;2.60;;
11222;SDS011;5668;52.012;8.724;2024-03-17T00:54:54;3.60;;;2.60;;
11222;SDS011;5668;52.012;8.724;2024-03-17T00:57:21;4.40;;;2.60;;
11222;SDS011;5668;52.012;8.724;2024-03-17T00:59:48;5.27;;;3.20;;
11222;SDS011;5668;52.012;8.724;2024-03-17T01:02:14;4.17;;;2.73;;
11222;SDS011;5668;52.012;8.724;2024-03-17T01:04:42;4.90;;;2.77;;
11222;SDS011;5668;52.012;8.724;2024-03-17T01:07:09;4.13;;;2.80;;
11222;SDS011;5668;52.012;8.724;2024-03-17T01:09:36;4.40;;;2.77;;
11222;SDS011;5668;52.012;8.724;2024-03-17T01:12:04;5.37;;;2.63;;
11222;SDS011;5668;52.012;8.724;2024-03-17T01:14:31;3.17;;;2.67;;
11222;SDS011;5668;52.012;8.724;2024-03-17T01:16:58;5.53;;;2.90;;
11222;SDS011;5668;52.012;8.724;2024-03-17T01:19:26;4.43;;;2.83;;
11222;SDS011;5668;52.012;8.724;2024-03-17T01:21:52;3.90;;;2.80;;
11222;SDS011;5668;52.012;8.724;2024-03-17T01:24:19;4.10;;;2.90;;
11222;SDS011;5668;52.012;8.724;2024-03-17T01:26:46;5.13;;;3.13;;
11222;SDS011;5668;52.012;8.724;2024-03-17T01:29:15;3.67;;;2.80;;
11222;SDS011;5668;52.012;8.724;2024-03-17T01:31:42;4.70;;;2.60;;
11222;SDS011;5668;52.012;8.724;2024-03-17T01:34:09;4.43;;;2.80;;
11222;SDS011;5668;52.012;8.724;2024-03-17T01:36:36;4.77;;;2.30;;
11222;SDS011;5668;52.012;8.724;2024-03-17T01:39:03;4.60;;;2.60;;
11222;SDS011;5668;52.012;8.724;2024-03-17T01:41:30;4.87;;;2.90;;
11222;SDS011;5668;52.012;8.724;2024-03-17T01:43:57;3.70;;;2.80;;
11222;SDS011;5668;52.012;8.724;2024-03-17T01:46:25;2.80;;;2.53;;
11222;SDS011;5668;52.012;8.724;2024-03-17T01:48:52;3.37;;;2.50;;
11222;SDS011;5668;52.012;8.724;2024-03-17T01:51:19;3.40;;;2.40;;
11222;SDS011;5668;52.012;8.724;2024-03-17T01:53:47;3.30;;;2.30;;
11222;SDS011;5668;52.012;8.724;2024-03-17T01:56:14;4.37;;;2.70;;
11222;SDS011;5668;52.012;8.724;2024-03-17T01:58:42;4.53;;;2.30;;
11222;SDS011;5668;52.012;8.724;2024-03-17T02:01:10;5.97;;;2.83;;
11222;SDS011;5668;52.012;8.724;2024-03-17T02:03:41;4.07;;;2.40;;
11222;SDS011;5668;52.012;8.724;2024-03-17T02:06:07;4.27;;;2.67;;
11222;SDS011;5668;52.012;8.724;2024-03-17T02:08:47;4.03;;;2.93;;
11222;SDS011;5668;52.012;8.724;2024-03-17T02:11:23;4.20;;;2.87;;
11222;SDS011;5668;52.012;8.724;2024-03-17T02:13:52;3.67;;;2.70;;
11222;SDS011;5668;52.012;8.724;2024-03-17T02:16:18;4.60;;;2.70;;
11222;SDS011;5668;52.012;8.724;2024-03-17T02:18:47;3.33;;;2.57;;
11222;SDS011;5668;52.012;8.724;2024-03-17T02:21:14;5.00;;;2.90;;
11222;SDS011;5668;52.012;8.724;2024-03-17T02:23:43;6.03;;;3.30;;
11222;SDS011;5668;52.012;8.724;2024-03-17T02:26:09;3.80;;;2.77;;
11222;SDS011;5668;52.012;8.724;2024-03-17T02:28:40;4.07;;;2.50;;
11222;SDS011;5668;52.012;8.724;2024-03-17T02:31:08;4.67;;;3.30;;
11222;SDS011;5668;52.012;8.724;2024-03-17T02:33:36;3.80;;;2.90;;
11222;SDS011;5668;52.012;8.724;2024-03-17T02:36:03;6.90;;;3.07;;
11222;SDS011;5668;52.012;8.724;2024-03-17T02:38:32;3.50;;;3.03;;
11222;SDS011;5668;52.012;8.724;2024-03-17T02:41:19;3.90;;;3.50;;
11222;SDS011;5668;52.012;8.724;2024-03-17T02:43:47;4.23;;;3.30;;
11222;SDS011;5668;52.012;8.724;2024-03-17T02:46:15;4.10;;;3.03;;
11222;SDS011;5668;52.012;8.724;2024-03-17T02:48:45;6.70;;;3.20;;
11222;SDS011;5668;52.012;8.724;2024-03-17T02:51:13;5.00;;;3.53;;
11222;SDS011;5668;52.012;8.724;2024-03-17T02:53:41;7.93;;;4.07;;
11222;SDS011;5668;52.012;8.724;2024-03-17T02:56:09;4.03;;;3.67;;
11222;SDS011;5668;52.012;8.724;2024-03-17T02:58:38;5.93;;;4.37;;
11222;SDS011;5668;52.012;8.724;2024-03-17T03:01:06;5.97;;;4.20;;
11222;SDS011;5668;52.012;8.724;2024-03-17T03:03:35;7.00;;;4.97;;
11222;SDS011;5668;52.012;8.724;2024-03-17T03:06:03;7.57;;;5.20;;
11222;SDS011;5668;52.012;8.724;2024-03-17T03:08:34;8.73;;;7.40;;
11222;SDS011;5668;52.012;8.724;2024-03-17T03:11:02;8.33;;;7.20;;
11222;SDS011;5668;52.012;8.724;2024-03-17T03:13:31;7.53;;;6.50;;
11222;SDS011;5668;52.012;8.724;2024-03-17T03:15:59;7.23;;;6.40;;
11222;SDS011;5668;52.012;8.724;2024-03-17T03:18:26;9.80;;;6.30;;
11222;SDS011;5668;52.012;8.724;2024-03-17T03:20:54;8.30;;;6.80;;
11222;SDS011;5668;52.012;8.724;2024-03-17T03:23:21;7.53;;;6.50;;
11222;SDS011;5668;52.012;8.724;2024-03-17T03:25:54;7.63;;;6.80;;
11222;SDS011;5668;52.012;8.724;2024-03-17T03:28:22;8.50;;;6.60;;
11222;SDS011;5668;52.012;8.724;2024-03-17T03:30:50;7.37;;;6.47;;
11222;SDS011;5668;52.012;8.724;2024-03-17T03:33:18;7.03;;;6.30;;
11222;SDS011;5668;52.012;8.724;2024-03-17T03:35:46;7.93;;;5.87;;
11222;SDS011;5668;52.012;8.724;2024-03-17T03:38:14;7.37;;;5.97;;
11222;SDS011;5668;52.012;8.724;2024-03-17T03:40:41;9.67;;;6.53;;
11222;SDS011;5668;52.012;8.724;2024-03-17T03:43:09;6.43;;;5.80;;
11222;SDS011;5668;52.012;8.724;2024-03-17T03:45:36;7.07;;;5.53;;
11222;SDS011;5668;52.012;8.724;2024-03-17T03:48:04;7.20;;;5.07;;
11222;SDS011;5668;52.012;8.724;2024-03-17T03:50:35;6.00;;;5.40;;
11222;SDS011;5668;52.012;8.724;2024-03-17T03:53:03;6.47;;;5.67;;
11222;SDS011;5668;52.012;8.724;2024-03-17T03:55:31;5.77;;;5.10;;
11222;SDS011;5668;52.012;8.724;2024-03-17T03:57:58;7.13;;;5.30;;
11222;SDS011;5668;52.012;8.724;2024-03-17T04:00:26;6.30;;;5.00;;
11222;SDS011;5668;52.012;8.724;2024-03-17T04:02:58;6.20;;;5.00;;
11222;SDS011;5668;52.012;8.724;2024-03-17T04:05:26;5.30;;;4.80;;
11222;SDS011;5668;52.012;8.724;2024-03-17T04:07:55;5.80;;;4.50;;
11222;SDS011;5668;52.012;8.724;2024-03-17T04:10:23;6.10;;;5.37;;
11222;SDS011;5668;52.012;8.724;2024-03-17T04:12:51;6.27;;;5.13;;
11222;SDS011;5668;52.012;8.724;2024-03-17T04:15:18;5.60;;;4.60;;
11222;SDS011;5668;52.012;8.724;2024-03-17T04:17:45;5.70;;;4.87;;
11222;SDS011;5668;52.012;8.724;2024-03-17T04:20:13;5.23;;;4.73;;
11222;SDS011;5668;52.012;8.724;2024-03-17T04:22:41;6.90;;;4.40;;
11222;SDS011;5668;52.012;8.724;2024-03-17T04:25:10;5.83;;;4.70;;
11222;SDS011;5668;52.012;8.724;2024-03-17T04:27:39;6.13;;;4.90;;
11222;SDS011;5668;52.012;8.724;2024-03-17T04:30:06;5.00;;;4.50;;
11222;SDS011;5668;52.012;8.724;2024-03-17T04:32:34;4.80;;;4.40;;
11222;SDS011;5668;52.012;8.724;2024-03-17T04:35:01;5.60;;;4.50;;
11222;SDS011;5668;52.012;8.724;2024-03-17T04:37:29;7.20;;;5.10;;
11222;SDS011;5668;52.012;8.724;2024-03-17T04:40:04;5.00;;;4.50;;
11222;SDS011;5668;52.012;8.724;2024-03-17T04:42:36;8.50;;;4.90;;
11222;SDS011;5668;52.012;8.724;2024-03-17T04:45:05;5.73;;;4.60;;
11222;SDS011;5668;52.012;8.724;2024-03-17T04:47:34;7.23;;;5.33;;
11222;SDS011;5668;52.012;8.724;2024-03-17T04:50:02;5.77;;;4.77;;
11222;SDS011;5668;52.012;8.724;2024-03-17T04:52:31;6.80;;;4.50;;
11222;SDS011;5668;52.012;8.724;2024-03-17T04:54:58;5.13;;;4.50;;
11222;SDS011;5668;52.012;8.724;2024-03-17T04:57:26;5.60;;;4.43;;
11222;SDS011;5668;52.012;8.724;2024-03-17T04:59:54;4.77;;;4.27;;
11222;SDS011;5668;52.012;8.724;2024-03-17T05:02:21;4.97;;;4.47;;
11222;SDS011;5668;52.012;8.724;2024-03-17T05:04:49;6.60;;;4.63;;
11222;SDS011;5668;52.012;8.724;2024-03-17T05:07:17;6.00;;;4.70;;
11222;SDS011;5668;52.012;8.724;2024-03-17T05:09:44;8.13;;;4.97;;
11222;SDS011;5668;52.012;8.724;2024-03-17T05:12:11;5.33;;;4.83;;
11222;SDS011;5668;52.012;8.724;2024-03-17T05:14:38;7.13;;;4.60;;
11222;SDS011;5668;52.012;8.724;2024-03-17T05:17:07;8.00;;;4.53;;
11222;SDS011;5668;52.012;8.724;2024-03-17T05:19:35;6.17;;;4.23;;
11222;SDS011;5668;52.012;8.724;2024-03-17T05:22:02;8.27;;;4.80;;
11222;SDS011;5668;52.012;8.724;2024-03-17T05:24:29;6.13;;;5.03;;
11222;SDS011;5668;52.012;8.724;2024-03-17T05:26:56;5.20;;;4.50;;
11222;SDS011;5668;52.012;8.724;2024-03-17T05:29:24;5.43;;;4.57;;
11222;SDS011;5668;52.012;8.724;2024-03-17T05:31:51;6.40;;;4.37;;
11222;SDS011;5668;52.012;8.724;2024-03-17T05:34:19;5.60;;;4.40;;
11222;SDS011;5668;52.012;8.724;2024-03-17T05:36:49;4.43;;;4.00;;
11222;SDS011;5668;52.012;8.724;2024-03-17T05:39:17;5.30;;;4.20;;
11222;SDS011;5668;52.012;8.724;2024-03-17T05:41:45;6.00;;;4.27;;
11222;SDS011;5668;52.012;8.724;2024-03-17T05:44:13;5.33;;;3.90;;
11222;SDS011;5668;52.012;8.724;2024-03-17T05:46:41;4.53;;;4.13;;
11222;SDS011;5668;52.012;8.724;2024-03-17T05:49:08;4.40;;;4.00;;
11222;SDS011;5668;52.012;8.724;2024-03-17T05:51:36;5.13;;;4.37;;
11222;SDS011;5668;52.012;8.724;2024-03-17T05:54:05;5.30;;;4.77;;
11222;SDS011;5668;52.012;8.724;2024-03-17T05:56:32;5.37;;;4.53;;
11222;SDS011;5668;52.012;8.724;2024-03-17T05:59:00;5.10;;;4.60;;
11222;SDS011;5668;52.012;8.724;2024-03-17T06:01:27;4.83;;;3.93;;
11222;SDS011;5668;52.012;8.724;2024-03-17T06:03:54;4.77;;;4.23;;
11222;SDS011;5668;52.012;8.724;2024-03-17T06:06:22;4.87;;;3.80;;
11222;SDS011;5668;52.012;8.724;2024-03-17T06:08:50;7.93;;;4.97;;
11222;SDS011;5668;52.012;8.724;2024-03-17T06:11:17;6.70;;;4.43;;
11222;SDS011;5668;52.012;8.724;2024-03-17T06:13:45;5.37;;;4.43;;
11222;SDS011;5668;52.012;8.724;2024-03-17T06:16:12;5.77;;;4.70;;
11222;SDS011;5668;52.012;8.724;2024-03-17T06:18:39;5.80;;;5.00;;
11222;SDS011;5668;52.012;8.724;2024-03-17T06:21:06;6.50;;;4.60;;
11222;SDS011;5668;52.012;8.724;2024-03-17T06:23:34;5.60;;;4.63;;
11222;SDS011;5668;52.012;8.724;2024-03-17T06:26:03;5.67;;;4.37;;
11222;SDS011;5668;52.012;8.724;2024-03-17T06:28:31;6.83;;;4.43;;
11222;SDS011;5668;52.012;8.724;2024-03-17T06:30:58;7.50;;;4.93;;
11222;SDS011;5668;52.012;8.724;2024-03-17T06:33:28;7.73;;;4.93;;
11222;SDS011;5668;52.012;8.724;2024-03-17T06:35:57;6.33;;;4.70;;
11222;SDS011;5668;52.012;8.724;2024-03-17T06:38:24;6.67;;;4.53;;
11222;SDS011;5668;52.012;8.724;2024-03-17T06:40:51;5.00;;;4.50;;
11222;SDS011;5668;52.012;8.724;2024-03-17T06:43:20;6.67;;;4.67;;
11222;SDS011;5668;52.012;8.724;2024-03-17T06:45:54;5.37;;;4.40;;
11222;SDS011;5668;52.012;8.724;2024-03-17T06:48:22;4.93;;;4.30;;
11222;SDS011;5668;52.012;8.724;2024-03-17T06:50:49;6.70;;;4.30;;
11222;SDS011;5668;52.012;8.724;2024-03-17T06:53:17;5.00;;;4.10;;
11222;SDS011;5668;52.012;8.724;2024-03-17T06:55:51;4.97;;;4.40;;
11222;SDS011;5668;52.012;8.724;2024-03-17T06:58:21;5.20;;;4.23;;
11222;SDS011;5668;52.012;8.724;2024-03-17T07:00:52;5.73;;;4.20;;
11222;SDS011;5668;52.012;8.724;2024-03-17T07:03:20;7.80;;;4.50;;
11222;SDS011;5668;52.012;8.724;2024-03-17T07:05:52;7.80;;;4.83;;
11222;SDS011;5668;52.012;8.724;2024-03-17T07:08:21;6.33;;;4.87;;
11222;SDS011;5668;52.012;8.724;2024-03-17T07:10:58;7.97;;;5.47;;
11222;SDS011;5668;52.012;8.724;2024-03-17T07:13:29;7.50;;;4.87;;
11222;SDS011;5668;52.012;8.724;2024-03-17T07:15:58;6.33;;;4.60;;
11222;SDS011;5668;52.012;8.724;2024-03-17T07:18:25;8.67;;;5.50;;
11222;SDS011;5668;52.012;8.724;2024-03-17T07:20:53;9.37;;;5.77;;
11222;SDS011;5668;52.012;8.724;2024-03-17T07:23:23;5.93;;;5.33;;
11222;SDS011;5668;52.012;8.724;2024-03-17T07:25:51;5.67;;;5.07;;
11222;SDS011;5668;52.012;8.724;2024-03-17T07:28:19;7.00;;;5.00;;
11222;SDS011;5668;52.012;8.724;2024-03-17T07:30:49;6.27;;;5.13;;
11222;SDS011;5668;52.012;8.724;2024-03-17T07:33:16;6.70;;;5.23;;
11222;SDS011;5668;52.012;8.724;2024-03-17T07:35:49;6.83;;;5.27;;
11222;SDS011;5668;52.012;8.724;2024-03-17T07:38:17;5.57;;;5.07;;
11222;SDS011;5668;52.012;8.724;2024-03-17T07:40:45;6.50;;;5.10;;
11222;SDS011;5668;52.012;8.724;2024-03-17T07:43:22;9.40;;;5.50;;
11222;SDS011;5668;52.012;8.724;2024-03-17T07:45:57;6.60;;;5.57;;
11222;SDS011;5668;52.012;8.724;2024-03-17T07:48:28;7.90;;;4.93;;
11222;SDS011;5668;52.012;8.724;2024-03-17T07:50:57;8.40;;;5.47;;
11222;SDS011;5668;52.012;8.724;2024-03-17T07:53:25;6.90;;;5.13;;
11222;SDS011;5668;52.012;8.724;2024-03-17T07:55:56;6.87;;;5.60;;
11222;SDS011;5668;52.012;8.724;2024-03-17T07:58:25;6.93;;;5.93;;
11222;SDS011;5668;52.012;8.724;2024-03-17T08:00:52;8.37;;;5.80;;
11222;SDS011;5668;52.012;8.724;2024-03-17T08:03:26;11.40;;;5.67;;
11222;SDS011;5668;52.012;8.724;2024-03-17T08:05:53;9.00;;;6.03;;
11222;SDS011;5668;52.012;8.724;2024-03-17T08:08:21;11.37;;;6.63;;
11222;SDS011;5668;52.012;8.724;2024-03-17T08:10:48;6.40;;;5.77;;
11222;SDS011;5668;52.012;8.724;2024-03-17T08:13:16;7.70;;;5.50;;
11222;SDS011;5668;52.012;8.724;2024-03-17T08:15:44;7.90;;;5.47;;
11222;SDS011;5668;52.012;8.724;2024-03-17T08:18:13;5.93;;;5.03;;
11222;SDS011;5668;52.012;8.724;2024-03-17T08:20:41;7.70;;;5.40;;
11222;SDS011;5668;52.012;8.724;2024-03-17T08:23:10;8.77;;;5.70;;
11222;SDS011;5668;52.012;8.724;2024-03-17T08:25:37;9.27;;;5.50;;
11222;SDS011;5668;52.012;8.724;2024-03-17T08:28:04;10.03;;;5.60;;
11222;SDS011;5668;52.012;8.724;2024-03-17T08:30:32;7.90;;;5.37;;
11222;SDS011;5668;52.012;8.724;2024-03-17T08:32:59;8.10;;;5.73;;
11222;SDS011;5668;52.012;8.724;2024-03-17T08:35:28;7.73;;;6.03;;
11222;SDS011;5668;52.012;8.724;2024-03-17T08:37:55;6.87;;;5.33;;
11222;SDS011;5668;52.012;8.724;2024-03-17T08:40:25;7.33;;;5.63;;
11222;SDS011;5668;52.012;8.724;2024-03-17T08:42:52;9.03;;;6.20;;
11222;SDS011;5668;52.012;8.724;2024-03-17T08:45:19;8.40;;;6.63;;
11222;SDS011;5668;52.012;8.724;2024-03-17T08:47:50;10.87;;;7.47;;
11222;SDS011;5668;52.012;8.724;2024-03-17T08:50:19;9.00;;;6.63;;
11222;SDS011;5668;52.012;8.724;2024-03-17T08:52:48;7.33;;;6.13;;
11222;SDS011;5668;52.012;8.724;2024-03-17T08:55:16;9.40;;;8.37;;
11222;SDS011;5668;52.012;8.724;2024-03-17T08:57:44;9.23;;;7.30;;
11222;SDS011;5668;52.012;8.724;2024-03-17T09:00:11;12.27;;;7.57;;
11222;SDS011;5668;52.012;8.724;2024-03-17T09:02:40;8.30;;;6.87;;
11222;SDS011;5668;52.012;8.724;2024-03-17T09:05:07;9.13;;;7.63;;
11222;SDS011;5668;52.012;8.724;2024-03-17T09:07:34;10.77;;;8.30;;
11222;SDS011;5668;52.012;8.724;2024-03-17T09:10:04;10.30;;;8.00;;
11222;SDS011;5668;52.012;8.724;2024-03-17T09:12:33;12.73;;;9.37;;
11222;SDS011;5668;52.012;8.724;2024-03-17T09:15:01;10.87;;;8.80;;
11222;SDS011;5668;52.012;8.724;2024-03-17T09:17:30;13.17;;;9.43;;
11222;SDS011;5668;52.012;8.724;2024-03-17T09:19:57;12.53;;;10.27;;
11222;SDS011;5668;52.012;8.724;2024-03-17T09:22:24;11.43;;;10.23;;
11222;SDS011;5668;52.012;8.724;2024-03-17T09:24:51;12.87;;;9.87;;
11222;SDS011;5668;52.012;8.724;2024-03-17T09:27:20;10.10;;;9.07;;
11222;SDS011;5668;52.012;8.724;2024-03-17T09:29:50;13.50;;;10.00;;
11222;SDS011;5668;52.012;8.724;2024-03-17T09:32:18;16.07;;;10.13;;
11222;SDS011;5668;52.012;8.724;2024-03-17T09:34:46;13.33;;;10.00;;
11222;SDS011;5668;52.012;8.724;2024-03-17T09:37:14;13.33;;;9.97;;
11222;SDS011;5668;52.012;8.724;2024-03-17T09:39:41;10.97;;;9.00;;
11222;SDS011;5668;52.012;8.724;2024-03-17T09:42:10;13.23;;;9.17;;
11222;SDS011;5668;52.012;8.724;2024-03-17T09:44:44;13.50;;;8.80;;
11222;SDS011;5668;52.012;8.724;2024-03-17T09:47:14;10.53;;;9.00;;
11222;SDS011;5668;52.012;8.724;2024-03-17T09:49:45;11.60;;;8.87;;
11222;SDS011;5668;52.012;8.724;2024-03-17T09:52:15;11.93;;;7.93;;
11222;SDS011;5668;52.012;8.724;2024-03-17T09:54:46;10.63;;;8.13;;
11222;SDS011;5668;52.012;8.724;2024-03-17T09:57:16;13.40;;;8.60;;
11222;SDS011;5668;52.012;8.724;2024-03-17T09:59:51;11.23;;;8.83;;
11222;SDS011;5668;52.012;8.724;2024-03-17T10:02:19;10.73;;;7.87;;
11222;SDS011;5668;52.012;8.724;2024-03-17T10:04:47;11.23;;;8.40;;
11222;SDS011;5668;52.012;8.724;2024-03-17T10:07:14;12.57;;;8.70;;
11222;SDS011;5668;52.012;8.724;2024-03-17T10:09:42;10.23;;;8.13;;
11222;SDS011;5668;52.012;8.724;2024-03-17T10:12:26;10.10;;;7.40;;
11222;SDS011;5668;52.012;8.724;2024-03-17T10:15:01;11.77;;;8.23;;
11222;SDS011;5668;52.012;8.724;2024-03-17T10:17:30;14.40;;;9.60;;
11222;SDS011;5668;52.012;8.724;2024-03-17T10:20:10;10.63;;;8.70;;
11222;SDS011;5668;52.012;8.724;2024-03-17T10:25:24;9.83;;;8.63;;
11222;SDS011;5668;52.012;8.724;2024-03-17T10:27:52;12.93;;;8.23;;
11222;SDS011;5668;52.012;8.724;2024-03-17T10:30:21;11.20;;;8.30;;
11222;SDS011;5668;52.012;8.724;2024-03-17T10:32:57;10.20;;;8.10;;
11222;SDS011;5668;52.012;8.724;2024-03-17T10:35:29;12.50;;;8.57;;
11222;SDS011;5668;52.012;8.724;2024-03-17T10:37:58;10.80;;;8.60;;
11222;SDS011;5668;52.012;8.724;2024-03-17T10:40:27;9.57;;;7.70;;
11222;SDS011;5668;52.012;8.724;2024-03-17T10:42:55;10.60;;;8.77;;
11222;SDS011;5668;52.012;8.724;2024-03-17T10:45:25;12.00;;;8.80;;
11222;SDS011;5668;52.012;8.724;2024-03-17T10:47:55;9.77;;;7.97;;
11222;SDS011;5668;52.012;8.724;2024-03-17T10:50:25;9.63;;;8.00;;
11222;SDS011;5668;52.012;8.724;2024-03-17T10:52:58;10.73;;;7.80;;
11222;SDS011;5668;52.012;8.724;2024-03-17T10:55:31;11.18;;;8.65;;
11222;SDS011;5668;52.012;8.724;2024-03-17T10:58:08;11.52;;;8.40;;
11222;SDS011;5668;52.012;8.724;2024-03-17T11:00:50;9.07;;;7.73;;
11222;SDS011;5668;52.012;8.724;2024-03-17T11:03:18;9.60;;;8.25;;
11222;SDS011;5668;52.012;8.724;2024-03-17T11:05:47;8.35;;;7.43;;
11222;SDS011;5668;52.012;8.724;2024-03-17T11:08:15;9.32;;;8.43;;
11222;SDS011;5668;52.012;8.724;2024-03-17T11:10:48;10.60;;;8.15;;
11222;SDS011;5668;52.012;8.724;2024-03-17T11:13:22;8.55;;;7.65;;
11222;SDS011;5668;52.012;8.724;2024-03-17T11:15:52;11.90;;;7.43;;
11222;SDS011;5668;52.012;8.724;2024-03-17T11:18:36;8.73;;;7.82;;
11222;SDS011;5668;52.012;8.724;2024-03-17T11:21:04;8.63;;;7.57;;
11222;SDS011;5668;52.012;8.724;2024-03-17T11:23:40;11.05;;;7.78;;
11222;SDS011;5668;52.012;8.724;2024-03-17T11:26:08;10.40;;;8.43;;
11222;SDS011;5668;52.012;8.724;2024-03-17T11:28:48;9.00;;;7.90;;
11222;SDS011;5668;52.012;8.724;2024-03-17T11:31:34;8.88;;;7.45;;
11222;SDS011;5668;52.012;8.724;2024-03-17T11:34:05;9.85;;;8.25;;
11222;SDS011;5668;52.012;8.724;2024-03-17T11:36:52;10.13;;;8.18;;
11222;SDS011;5668;52.012;8.724;2024-03-17T11:39:20;9.27;;;8.20;;
11222;SDS011;5668;52.012;8.724;2024-03-17T11:41:54;8.43;;;7.60;;
11222;SDS011;5668;52.012;8.724;2024-03-17T11:44:24;10.13;;;8.25;;
11222;SDS011;5668;52.012;8.724;2024-03-17T11:46:53;9.55;;;7.95;;
11222;SDS011;5668;52.012;8.724;2024-03-17T11:49:23;8.55;;;7.60;;
11222;SDS011;5668;52.012;8.724;2024-03-17T11:51:51;8.82;;;7.95;;
11222;SDS011;5668;52.012;8.724;2024-03-17T11:54:20;9.70;;;8.20;;
11222;SDS011;5668;52.012;8.724;2024-03-17T11:56:49;9.02;;;8.13;;
11222;SDS011;5668;52.012;8.724;2024-03-17T11:59:17;10.18;;;8.32;;
11222;SDS011;5668;52.012;8.724;2024-03-17T12:01:44;8.52;;;7.72;;
11222;SDS011;5668;52.012;8.724;2024-03-17T12:04:14;9.50;;;8.35;;
11222;SDS011;5668;52.012;8.724;2024-03-17T12:06:44;9.40;;;8.50;;
11222;SDS011;5668;52.012;8.724;2024-03-17T12:09:16;9.40;;;8.48;;
11222;SDS011;5668;52.012;8.724;2024-03-17T12:11:45;11.50;;;9.23;;
11222;SDS011;5668;52.012;8.724;2024-03-17T12:14:15;9.73;;;8.73;;
11222;SDS011;5668;52.012;8.724;2024-03-17T12:16:49;11.10;;;9.32;;
11222;SDS011;5668;52.012;8.724;2024-03-17T12:19:19;11.75;;;8.43;;
11222;SDS011;5668;52.012;8.724;2024-03-17T12:21:47;9.02;;;8.13;;
11222;SDS011;5668;52.012;8.724;2024-03-17T12:24:16;9.75;;;8.85;;
11222;SDS011;5668;52.012;8.724;2024-03-17T12:26:44;9.48;;;8.48;;
11222;SDS011;5668;52.012;8.724;2024-03-17T12:29:22;10.30;;;8.77;;
11222;SDS011;5668;52.012;8.724;2024-03-17T12:31:50;10.98;;;8.43;;
11222;SDS011;5668;52.012;8.724;2024-03-17T12:34:19;9.82;;;8.90;;
11222;SDS011;5668;52.012;8.724;2024-03-17T12:36:47;11.27;;;8.77;;
11222;SDS011;5668;52.012;8.724;2024-03-17T12:39:18;11.73;;;8.68;;
11222;SDS011;5668;52.012;8.724;2024-03-17T12:42:00;8.18;;;7.35;;
11222;SDS011;5668;52.012;8.724;2024-03-17T12:44:29;7.85;;;7.05;;
11222;SDS011;5668;52.012;8.724;2024-03-17T12:46:55;8.30;;;7.35;;
11222;SDS011;5668;52.012;8.724;2024-03-17T12:49:26;8.38;;;7.53;;
11222;SDS011;5668;52.012;8.724;2024-03-17T12:51:55;10.23;;;8.40;;
11222;SDS011;5668;52.012;8.724;2024-03-17T12:54:24;9.35;;;8.18;;
11222;SDS011;5668;52.012;8.724;2024-03-17T12:56:51;9.77;;;8.73;;
11222;SDS011;5668;52.012;8.724;2024-03-17T12:59:47;13.57;;;8.07;;
11222;SDS011;5668;52.012;8.724;2024-03-17T13:02:32;8.50;;;7.65;;
11222;SDS011;5668;52.012;8.724;2024-03-17T13:07:49;7.75;;;5.75;;
11222;SDS011;5668;52.012;8.724;2024-03-17T13:10:17;6.03;;;5.40;;
11222;SDS011;5668;52.012;8.724;2024-03-17T13:12:46;5.47;;;4.97;;
11222;SDS011;5668;52.012;8.724;2024-03-17T13:15:15;5.30;;;4.57;;
11222;SDS011;5668;52.012;8.724;2024-03-17T13:17:43;5.93;;;4.95;;
11222;SDS011;5668;52.012;8.724;2024-03-17T13:20:12;5.10;;;4.60;;
11222;SDS011;5668;52.012;8.724;2024-03-17T13:22:42;5.18;;;4.75;;
11222;SDS011;5668;52.012;8.724;2024-03-17T13:25:13;7.15;;;5.55;;
11222;SDS011;5668;52.012;8.724;2024-03-17T13:27:42;5.43;;;4.93;;
11222;SDS011;5668;52.012;8.724;2024-03-17T13:30:11;5.47;;;4.85;;
11222;SDS011;5668;52.012;8.724;2024-03-17T13:32:38;5.88;;;5.28;;
11222;SDS011;5668;52.012;8.724;2024-03-17T13:35:10;9.38;;;5.75;;
11222;SDS011;5668;52.012;8.724;2024-03-17T13:37:44;5.72;;;5.20;;
11222;SDS011;5668;52.012;8.724;2024-03-17T13:40:13;6.97;;;5.15;;
11222;SDS011;5668;52.012;8.724;2024-03-17T13:42:43;6.30;;;5.70;;
11222;SDS011;5668;52.012;8.724;2024-03-17T13:45:12;5.97;;;5.38;;
11222;SDS011;5668;52.012;8.724;2024-03-17T13:47:40;5.57;;;4.93;;
11222;SDS011;5668;52.012;8.724;2024-03-17T13:50:11;5.95;;;5.15;;
11222;SDS011;5668;52.012;8.724;2024-03-17T13:52:39;6.05;;;5.22;;
11222;SDS011;5668;52.012;8.724;2024-03-17T13:55:11;5.90;;;5.30;;
11222;SDS011;5668;52.012;8.724;2024-03-17T13:57:39;5.45;;;4.90;;
11222;SDS011;5668;52.012;8.724;2024-03-17T14:00:08;5.53;;;4.90;;
11222;SDS011;5668;52.012;8.724;2024-03-17T14:02:40;5.15;;;4.72;;
11222;SDS011;5668;52.012;8.724;2024-03-17T14:05:09;5.15;;;4.65;;
11222;SDS011;5668;52.012;8.724;2024-03-17T14:07:39;5.72;;;4.85;;
11222;SDS011;5668;52.012;8.724;2024-03-17T14:10:07;5.18;;;4.78;;
11222;SDS011;5668;52.012;8.724;2024-03-17T14:12:39;5.28;;;4.78;;
11222;SDS011;5668;52.012;8.724;2024-03-17T14:15:06;5.65;;;5.15;;
11222;SDS011;5668;52.012;8.724;2024-03-17T14:17:36;6.35;;;5.10;;
11222;SDS011;5668;52.012;8.724;2024-03-17T14:20:04;6.57;;;5.57;;
11222;SDS011;5668;52.012;8.724;2024-03-17T14:22:35;6.25;;;5.25;;
11222;SDS011;5668;52.012;8.724;2024-03-17T14:25:03;6.00;;;5.40;;
11222;SDS011;5668;52.012;8.724;2024-03-17T14:27:33;6.07;;;5.57;;
11222;SDS011;5668;52.012;8.724;2024-03-17T14:30:00;6.15;;;5.55;;
11222;SDS011;5668;52.012;8.724;2024-03-17T14:32:29;6.05;;;5.50;;
11222;SDS011;5668;52.012;8.724;2024-03-17T14:34:56;6.32;;;5.60;;
11222;SDS011;5668;52.012;8.724;2024-03-17T14:37:24;6.72;;;5.75;;
11222;SDS011;5668;52.012;8.724;2024-03-17T14:39:52;6.70;;;5.78;;
11222;SDS011;5668;52.012;8.724;2024-03-17T14:42:20;6.38;;;5.32;;
11222;SDS011;5668;52.012;8.724;2024-03-17T14:44:49;6.32;;;5.72;;
11222;SDS011;5668;52.012;8.724;2024-03-17T14:47:16;6.25;;;4.93;;
11222;SDS011;5668;52.012;8.724;2024-03-17T14:49:43;5.55;;;5.05;;
11222;SDS011;5668;52.012;8.724;2024-03-17T14:52:11;5.45;;;4.90;;
11222;SDS011;5668;52.012;8.724;2024-03-17T14:54:38;6.45;;;4.93;;
11222;SDS011;5668;52.012;8.724;2024-03-17T14:57:05;7.30;;;5.35;;
11222;SDS011;5668;52.012;8.724;2024-03-17T14:59:32;5.78;;;5.18;;
11222;SDS011;5668;52.012;8.724;2024-03-17T15:02:01;5.60;;;5.10;;
11222;SDS011;5668;52.012;8.724;2024-03-17T15:04:28;5.00;;;4.50;;
11222;SDS011;5668;52.012;8.724;2024-03-17T15:06:55;5.15;;;4.65;;
11222;SDS011;5668;52.012;8.724;2024-03-17T15:09:23;5.65;;;4.30;;
11222;SDS011;5668;52.012;8.724;2024-03-17T15:11:50;4.88;;;4.47;;
11222;SDS011;5668;52.012;8.724;2024-03-17T15:14:17;5.10;;;4.55;;
11222;SDS011;5668;52.012;8.724;2024-03-17T15:16:45;5.55;;;4.53;;